Motley, Minnesota
Current Conditions -  °F | °C
As of 11:33 AM on Tuesday 21 Oct 2014 (Local Time) from KSAZ Reporting Station
Clear Clear  
Wind Chill: 50°   Ceiling: Unl
Heat Index: 50°   Visibility: 10mi
Dew Point: 37°   Wind: 9mph
Humidity: 62%   Direction: 150°SSE
Pressure: 30.13"   Gusts: 16mph
Location:  46.34°N, 94.65°W
Report Text: KSAZ 211633Z AUTO 15008G14KT 10SM CLR 10/03 A3013 RMK AO2
Loading
Personal Weather Stations






























Interactive Weather Map
Tropical Storm Tracking
New forecast layout! Learn more

10-Day Weather Forecast

Advertisements
Track Severe Weather on mobile